Time;durP1;ratioP1;P1;durP2;ratioP2;P2;SDS_P1;SDS_P2;PMS_P1;PMS_P2;Temp;Humidity;BMP_temperature;BMP_pressure;BME280_temperature;BME280_humidity;BME280_pressure;Samples;Min_cycle;Max_cycle;Signal;HPM_P1;HPM_P2
2022/11/06 00:01:46;;;;;;;6.72;2.60;;;;;;;;;;4964255;28;20047;-63
2022/11/06 00:04:14;;;;;;;10.95;3.08;;;;;;;;;;4961643;28;20057;-64
2022/11/06 00:06:49;;;;;;;9.38;2.63;;;;;;;;;;4960895;28;20066;-63
2022/11/06 00:09:16;;;;;;;8.77;2.92;;;;;;;;;;4961601;28;20054;-63
2022/11/06 00:11:43;;;;;;;8.85;3.03;;;;;;;;;;4962675;28;20059;-63
2022/11/06 00:14:10;;;;;;;10.02;2.67;;;;;;;;;;4957272;28;20055;-63
2022/11/06 00:16:37;;;;;;;8.75;2.40;;;;;;;;;;4960309;28;20051;-63
2022/11/06 00:19:05;;;;;;;6.32;2.58;;;;;;;;;;4953499;28;20055;-63
2022/11/06 00:21:33;;;;;;;9.27;3.20;;;;;;;;;;4966227;28;20050;-63
2022/11/06 00:24:01;;;;;;;8.00;2.85;;;;;;;;;;4956217;28;20086;-63
2022/11/06 00:26:29;;;;;;;8.88;3.67;;;;;;;;;;4963011;28;20079;-63
2022/11/06 00:28:56;;;;;;;8.68;3.33;;;;;;;;;;4957315;28;20062;-63
2022/11/06 00:31:24;;;;;;;7.20;3.10;;;;;;;;;;4964048;28;20129;-63
2022/11/06 00:33:51;;;;;;;;;;;;;;;;;;4956835;28;20047;-63
2022/11/06 00:36:21;;;;;;;7.38;2.15;;;;;;;;;;4967433;28;19921;-63
2022/11/06 00:38:47;;;;;;;7.03;2.58;;;;;;;;;;4956642;28;20093;-63
2022/11/06 00:41:15;;;;;;;12.02;3.13;;;;;;;;;;4966824;28;20046;-63
2022/11/06 00:43:42;;;;;;;6.28;2.50;;;;;;;;;;4955130;28;20055;-63
2022/11/06 00:46:09;;;;;;;6.18;2.35;;;;;;;;;;4962719;28;20055;-63
2022/11/06 00:48:36;;;;;;;9.38;3.05;;;;;;;;;;4963718;28;20051;-63
2022/11/06 00:51:03;;;;;;;9.70;3.13;;;;;;;;;;4959371;28;20058;-63
2022/11/06 00:53:33;;;;;;;10.45;2.58;;;;;;;;;;4997669;28;20064;-63
2022/11/06 00:56:05;;;;;;;8.88;2.88;;;;;;;;;;4956250;28;20074;-63
2022/11/06 00:58:32;;;;;;;6.55;2.13;;;;;;;;;;4961423;28;20046;-63
2022/11/06 01:01:05;;;;;;;9.73;2.53;;;;;;;;;;4961339;28;20043;-63
2022/11/06 01:03:33;;;;;;;9.88;2.60;;;;;;;;;;4960773;28;20051;-63
2022/11/06 01:06:03;;;;;;;6.57;2.90;;;;;;;;;;4957712;28;20054;-63
2022/11/06 01:08:32;;;;;;;7.97;2.63;;;;;;;;;;4965759;28;20055;-62
2022/11/06 01:10:59;;;;;;;;;;;;;;;;;;4956586;28;20063;-63
2022/11/06 01:13:25;;;;;;;8.15;2.58;;;;;;;;;;4965806;28;19936;-63
2022/11/06 01:15:52;;;;;;;6.32;2.35;;;;;;;;;;4952221;28;20063;-63
2022/11/06 01:18:18;;;;;;;7.28;2.53;;;;;;;;;;4943110;28;20052;-63
2022/11/06 01:20:45;;;;;;;6.78;2.78;;;;;;;;;;4948514;28;20059;-63
2022/11/06 01:23:13;;;;;;;4.80;2.13;;;;;;;;;;4960893;28;20062;-63
2022/11/06 01:25:41;;;;;;;9.00;2.55;;;;;;;;;;4955135;28;20066;-63
2022/11/06 01:28:07;;;;;;;10.82;2.80;;;;;;;;;;4965860;28;20054;-64
2022/11/06 01:30:36;;;;;;;6.32;3.00;;;;;;;;;;4956123;28;20073;-63
2022/11/06 01:33:03;;;;;;;4.82;1.85;;;;;;;;;;4961551;28;20057;-63
2022/11/06 01:35:29;;;;;;;8.32;2.90;;;;;;;;;;4965270;28;20069;-63
2022/11/06 01:37:56;;;;;;;6.78;2.30;;;;;;;;;;4957764;28;20054;-63
2022/11/06 01:40:23;;;;;;;5.32;2.20;;;;;;;;;;4961504;28;20054;-63
2022/11/06 01:42:51;;;;;;;7.82;2.17;;;;;;;;;;4956614;28;20058;-63
2022/11/06 01:45:24;;;;;;;6.63;2.08;;;;;;;;;;4998543;28;20062;-63
2022/11/06 01:47:51;;;;;;;8.30;2.35;;;;;;;;;;4953748;28;20090;-63
2022/11/06 01:50:18;;;;;;;9.50;2.17;;;;;;;;;;4963009;28;20050;-64
2022/11/06 01:52:47;;;;;;;5.80;2.15;;;;;;;;;;4958864;28;20053;-63
2022/11/06 01:55:13;;;;;;;;;;;;;;;;;;4965705;28;20063;-62
2022/11/06 01:57:40;;;;;;;4.38;2.10;;;;;;;;;;4953885;28;19926;-63
2022/11/06 02:00:09;;;;;;;4.57;2.13;;;;;;;;;;4960622;28;20055;-63
2022/11/06 02:02:36;;;;;;;9.48;2.47;;;;;;;;;;4954242;28;20047;-63
2022/11/06 02:05:02;;;;;;;6.78;2.45;;;;;;;;;;4965481;28;20081;-62
2022/11/06 02:07:32;;;;;;;4.43;1.92;;;;;;;;;;4959125;28;20062;-64
2022/11/06 02:09:59;;;;;;;5.40;2.42;;;;;;;;;;4964631;28;20113;-63
2022/11/06 02:12:33;;;;;;;8.10;2.40;;;;;;;;;;4959530;28;20074;-63
2022/11/06 02:15:01;;;;;;;11.13;1.90;;;;;;;;;;4965278;28;20059;-63
2022/11/06 02:17:38;;;;;;;4.20;1.67;;;;;;;;;;4957727;28;20059;-63
2022/11/06 02:20:07;;;;;;;4.07;1.88;;;;;;;;;;4961606;28;20055;-63
2022/11/06 02:22:45;;;;;;;4.20;1.70;;;;;;;;;;4955674;28;20142;-63
2022/11/06 02:25:13;;;;;;;8.93;2.03;;;;;;;;;;4960396;28;20061;-63
2022/11/06 02:27:44;;;;;;;8.85;1.92;;;;;;;;;;4951088;28;20055;-62
2022/11/06 02:30:12;;;;;;;8.65;1.88;;;;;;;;;;4944217;28;20055;-63
2022/11/06 02:32:41;;;;;;;6.93;1.90;;;;;;;;;;4941615;28;20062;-63
2022/11/06 02:35:13;;;;;;;5.10;2.00;;;;;;;;;;4955017;28;20057;-63
2022/11/06 02:37:40;;;;;;;8.85;1.88;;;;;;;;;;4958991;28;20047;-62
2022/11/06 02:40:09;;;;;;;3.92;1.60;;;;;;;;;;4958378;28;20046;-63
2022/11/06 02:42:39;;;;;;;9.18;1.95;;;;;;;;;;4964485;28;20062;-62
2022/11/06 02:45:11;;;;;;;6.78;1.98;;;;;;;;;;4960519;28;20059;-63
2022/11/06 02:47:39;;;;;;;6.25;2.10;;;;;;;;;;4963707;28;20141;-63
2022/11/06 02:50:09;;;;;;;5.82;1.77;;;;;;;;;;4954650;28;20046;-63
2022/11/06 02:53:16;;;;;;;8.10;1.88;;;;;;;;;;5064924;23;20161;-63
2022/11/06 02:55:45;;;;;;;4.78;1.90;;;;;;;;;;4936883;28;20059;-63
2022/11/06 02:58:13;;;;;;;7.90;2.40;;;;;;;;;;4949221;28;20125;-63
2022/11/06 03:00:42;;;;;;;8.15;1.75;;;;;;;;;;4939756;28;20062;-63
2022/11/06 03:03:12;;;;;;;7.93;2.30;;;;;;;;;;4960830;28;20109;-63
2022/11/06 03:05:43;;;;;;;5.53;2.03;;;;;;;;;;4942575;28;20086;-63
2022/11/06 03:08:14;;;;;;;8.43;2.10;;;;;;;;;;4943632;28;20055;-63
2022/11/06 03:10:43;;;;;;;5.30;1.52;;;;;;;;;;4936818;28;20272;-63
2022/11/06 03:13:15;;;;;;;3.45;1.23;;;;;;;;;;4942888;28;20062;-63
2022/11/06 03:15:45;;;;;;;6.03;2.10;;;;;;;;;;4938855;28;20063;-63
2022/11/06 03:18:15;;;;;;;5.70;1.90;;;;;;;;;;4954959;28;20058;-63
2022/11/06 03:20:43;;;;;;;5.20;2.33;;;;;;;;;;4961758;28;20121;-63
2022/11/06 03:23:13;;;;;;;6.03;1.55;;;;;;;;;;4950749;28;20054;-65
2022/11/06 03:25:43;;;;;;;5.53;1.75;;;;;;;;;;4955529;28;20105;-63
2022/11/06 03:28:11;;;;;;;7.32;1.60;;;;;;;;;;4950459;28;20058;-63
2022/11/06 03:30:41;;;;;;;4.18;1.48;;;;;;;;;;4961670;28;20046;-63
2022/11/06 03:33:13;;;;;;;3.92;1.40;;;;;;;;;;4953697;28;21344;-63
2022/11/06 03:35:42;;;;;;;5.38;1.65;;;;;;;;;;4940380;28;20146;-63
2022/11/06 03:38:11;;;;;;;6.18;1.85;;;;;;;;;;4942079;28;20070;-63
2022/11/06 03:40:41;;;;;;;5.13;2.08;;;;;;;;;;4942075;28;20063;-63
2022/11/06 03:43:10;;;;;;;4.90;1.70;;;;;;;;;;4948772;28;20058;-63
2022/11/06 03:45:38;;;;;;;7.38;1.73;;;;;;;;;;4946555;28;20061;-64
2022/11/06 03:48:10;;;;;;;3.88;1.55;;;;;;;;;;4965306;28;20070;-63
2022/11/06 03:50:40;;;;;;;6.90;1.83;;;;;;;;;;4947429;28;20055;-64
2022/11/06 03:53:09;;;;;;;3.85;1.60;;;;;;;;;;4942514;28;20059;-63
2022/11/06 03:55:38;;;;;;;2.67;1.55;;;;;;;;;;4943647;28;20063;-63
2022/11/06 03:58:08;;;;;;;6.15;1.80;;;;;;;;;;4940897;28;20062;-63
2022/11/06 04:00:36;;;;;;;6.57;1.85;;;;;;;;;;4936228;28;20055;-64
2022/11/06 04:03:07;;;;;;;3.28;1.30;;;;;;;;;;4940836;28;20066;-63
2022/11/06 04:05:35;;;;;;;5.28;1.65;;;;;;;;;;4937819;28;20059;-63
2022/11/06 04:16:20;;;;;;;5.28;1.63;;;;;;;;;;4974386;28;20440;-63
2022/11/06 04:18:47;;;;;;;6.00;1.38;;;;;;;;;;4947122;28;20047;-63
2022/11/06 04:21:24;;;;;;;6.05;1.40;;;;;;;;;;4961106;28;20082;-63
2022/11/06 04:26:50;;;;;;;6.93;1.40;;;;;;;;;;4961354;28;20165;-63
2022/11/06 04:29:25;;;;;;;7.85;1.67;;;;;;;;;;4954916;28;20058;-63
2022/11/06 04:31:58;;;;;;;3.35;1.73;;;;;;;;;;4959808;28;20122;-63
2022/11/06 04:34:29;;;;;;;3.95;1.17;;;;;;;;;;4954146;28;20078;-63
2022/11/06 04:37:00;;;;;;;3.30;1.20;;;;;;;;;;4960496;28;20054;-63
2022/11/06 04:39:30;;;;;;;3.58;1.35;;;;;;;;;;4954310;28;20118;-63
2022/11/06 04:41:59;;;;;;;4.22;1.60;;;;;;;;;;4956142;28;20073;-63
2022/11/06 04:44:28;;;;;;;2.75;1.13;;;;;;;;;;4952324;28;20054;-63
2022/11/06 04:46:57;;;;;;;2.85;1.20;;;;;;;;;;4947027;28;20055;-63
2022/11/06 04:49:24;;;;;;;5.47;1.80;;;;;;;;;;4947346;28;20097;-63
2022/11/06 04:51:51;;;;;;;6.32;1.33;;;;;;;;;;4954342;28;20058;-63
2022/11/06 04:54:18;;;;;;;8.93;1.52;;;;;;;;;;4955209;28;20059;-63
2022/11/06 04:56:46;;;;;;;6.32;1.80;;;;;;;;;;4973610;28;20054;-63
2022/11/06 04:59:14;;;;;;;6.70;1.52;;;;;;;;;;4968413;28;20147;-63
2022/11/06 05:01:41;;;;;;;3.50;1.40;;;;;;;;;;4934635;28;20043;-63
2022/11/06 05:04:07;;;;;;;8.02;1.88;;;;;;;;;;4947292;28;20058;-63
2022/11/06 05:06:34;;;;;;;7.32;1.55;;;;;;;;;;4960354;28;20113;-63
2022/11/06 05:09:00;;;;;;;2.67;1.10;;;;;;;;;;4962900;28;20069;-63
2022/11/06 05:11:30;;;;;;;5.57;1.15;;;;;;;;;;4953508;28;20113;-63
2022/11/06 05:13:58;;;;;;;5.68;1.38;;;;;;;;;;4959592;28;20058;-63
2022/11/06 05:16:25;;;;;;;3.57;1.10;;;;;;;;;;4950536;28;20087;-63
2022/11/06 05:18:51;;;;;;;4.78;1.30;;;;;;;;;;4939695;28;20196;-63
2022/11/06 05:24:02;;;;;;;2.80;1.20;;;;;;;;;;4978600;28;20057;-63
2022/11/06 05:26:29;;;;;;;2.80;1.20;;;;;;;;;;4945518;28;20051;-63
2022/11/06 05:28:55;;;;;;;3.28;1.20;;;;;;;;;;4940495;28;20075;-64
2022/11/06 05:31:23;;;;;;;5.45;1.50;;;;;;;;;;4944558;28;20090;-63
2022/11/06 05:33:50;;;;;;;2.67;1.20;;;;;;;;;;4950630;28;20153;-63
2022/11/06 05:36:16;;;;;;;2.80;1.13;;;;;;;;;;4953629;28;20132;-64
2022/11/06 05:38:43;;;;;;;3.80;1.10;;;;;;;;;;4963758;28;20046;-64
2022/11/06 05:41:10;;;;;;;4.82;1.02;;;;;;;;;;4953601;28;20360;-64
2022/11/06 05:43:37;;;;;;;5.90;1.35;;;;;;;;;;4952873;28;20087;-63
2022/11/06 05:46:03;;;;;;;4.32;1.02;;;;;;;;;;4957839;28;20386;-63
2022/11/06 05:48:31;;;;;;;3.88;1.13;;;;;;;;;;4958815;28;20058;-63
2022/11/06 05:51:00;;;;;;;2.65;1.10;;;;;;;;;;4958163;28;20050;-63
2022/11/06 05:53:30;;;;;;;;;;;;;;;;;;4959266;28;20169;-63
2022/11/06 05:55:56;;;;;;;3.80;0.80;;;;;;;;;;4957117;28;19926;-63
2022/11/06 05:58:22;;;;;;;2.03;1.00;;;;;;;;;;4934243;28;20063;-63
2022/11/06 06:00:49;;;;;;;2.53;0.98;;;;;;;;;;4941005;28;20119;-63
2022/11/06 06:03:17;;;;;;;4.57;1.40;;;;;;;;;;4950778;28;20078;-63
2022/11/06 06:05:45;;;;;;;4.07;1.27;;;;;;;;;;4957618;28;20062;-63
2022/11/06 06:08:12;;;;;;;10.13;1.77;;;;;;;;;;4952659;28;20062;-63
2022/11/06 06:10:40;;;;;;;4.07;1.20;;;;;;;;;;4959049;28;20082;-63
2022/11/06 06:13:06;;;;;;;3.00;1.00;;;;;;;;;;4962825;28;20190;-63
2022/11/06 06:15:34;;;;;;;4.85;1.30;;;;;;;;;;4974949;28;20050;-63
2022/11/06 06:18:00;;;;;;;4.30;1.13;;;;;;;;;;4934371;28;20059;-63
2022/11/06 06:20:27;;;;;;;2.70;0.98;;;;;;;;;;4941069;28;20062;-63
2022/11/06 06:22:55;;;;;;;8.15;1.27;;;;;;;;;;4946578;28;20187;-63
2022/11/06 06:25:22;;;;;;;4.38;0.93;;;;;;;;;;4965753;28;20058;-63
2022/11/06 06:27:49;;;;;;;1.25;0.90;;;;;;;;;;4961612;28;20185;-63
2022/11/06 06:30:15;;;;;;;3.22;1.20;;;;;;;;;;4958791;28;20054;-63
2022/11/06 06:32:42;;;;;;;3.92;1.25;;;;;;;;;;4952615;28;20047;-63
2022/11/06 06:35:09;;;;;;;2.67;1.00;;;;;;;;;;4959899;28;20070;-63
2022/11/06 06:37:35;;;;;;;3.05;1.00;;;;;;;;;;4955949;28;20163;-63
2022/11/06 06:40:04;;;;;;;8.00;1.35;;;;;;;;;;4956752;28;20062;-63
2022/11/06 06:42:32;;;;;;;;;;;;;;;;;;4963457;28;20062;-63
2022/11/06 06:44:59;;;;;;;2.55;0.80;;;;;;;;;;4959023;28;19933;-63
2022/11/06 06:47:29;;;;;;;1.85;1.00;;;;;;;;;;4962645;28;20154;-63
2022/11/06 06:49:56;;;;;;;5.68;1.30;;;;;;;;;;4950749;28;20058;-63
2022/11/06 06:52:23;;;;;;;5.00;1.20;;;;;;;;;;4962135;28;20165;-63
2022/11/06 06:54:49;;;;;;;3.53;0.80;;;;;;;;;;4956189;28;20050;-63
2022/11/06 06:57:17;;;;;;;6.18;1.02;;;;;;;;;;4962419;28;20061;-63
2022/11/06 06:59:44;;;;;;;4.68;1.38;;;;;;;;;;4950257;28;20261;-63
2022/11/06 07:02:11;;;;;;;7.18;1.40;;;;;;;;;;4962550;28;20054;-63
2022/11/06 07:04:37;;;;;;;4.00;1.10;;;;;;;;;;4956131;28;20137;-63
2022/11/06 07:07:04;;;;;;;4.03;1.35;;;;;;;;;;4963124;28;20065;-63
2022/11/06 07:09:31;;;;;;;6.50;1.40;;;;;;;;;;4952399;28;20042;-64
2022/11/06 07:11:57;;;;;;;7.22;1.30;;;;;;;;;;4962579;28;20063;-63
2022/11/06 07:14:25;;;;;;;7.82;1.40;;;;;;;;;;4955736;28;20066;-62
2022/11/06 07:16:52;;;;;;;5.50;1.00;;;;;;;;;;4960005;28;20062;-63
2022/11/06 07:19:20;;;;;;;3.17;0.95;;;;;;;;;;4938305;28;20147;-63
2022/11/06 07:21:47;;;;;;;3.60;1.10;;;;;;;;;;4927960;28;20055;-62
2022/11/06 07:24:14;;;;;;;2.67;0.95;;;;;;;;;;4954222;28;20062;-63
2022/11/06 07:26:40;;;;;;;4.82;1.40;;;;;;;;;;4957169;28;20069;-63
2022/11/06 07:29:08;;;;;;;4.95;1.38;;;;;;;;;;4960889;28;20054;-63
2022/11/06 07:31:36;;;;;;;4.97;1.45;;;;;;;;;;4953511;28;20042;-64
2022/11/06 07:34:03;;;;;;;3.33;1.05;;;;;;;;;;4962286;28;20051;-64
2022/11/06 07:36:31;;;;;;;4.07;1.08;;;;;;;;;;4956150;28;20062;-63
2022/11/06 07:38:58;;;;;;;2.97;1.15;;;;;;;;;;4963520;28;20134;-63
2022/11/06 07:41:24;;;;;;;3.67;1.13;;;;;;;;;;4954099;28;20504;-63
2022/11/06 07:43:51;;;;;;;2.88;1.20;;;;;;;;;;4959876;28;20077;-63
2022/11/06 07:46:19;;;;;;;6.28;1.20;;;;;;;;;;4956447;28;20062;-63
2022/11/06 07:48:47;;;;;;;5.43;1.38;;;;;;;;;;4957389;28;20055;-63
2022/11/06 07:51:13;;;;;;;2.58;0.90;;;;;;;;;;4952617;28;20051;-64
2022/11/06 07:53:40;;;;;;;2.83;1.00;;;;;;;;;;4954389;28;20090;-63
2022/11/06 07:56:08;;;;;;;5.45;1.45;;;;;;;;;;4955509;28;20058;-63
2022/11/06 07:58:34;;;;;;;3.08;0.90;;;;;;;;;;4960831;28;20105;-62
2022/11/06 08:01:01;;;;;;;3.65;1.23;;;;;;;;;;4953343;28;20255;-63
2022/11/06 08:03:29;;;;;;;5.35;1.20;;;;;;;;;;4949947;28;20055;-64
2022/11/06 08:05:57;;;;;;;5.90;1.52;;;;;;;;;;4947439;28;20055;-63
2022/11/06 08:08:24;;;;;;;4.60;1.10;;;;;;;;;;4944302;28;20083;-64
2022/11/06 08:10:52;;;;;;;3.75;1.17;;;;;;;;;;4951920;28;20054;-63
2022/11/06 08:13:19;;;;;;;4.75;1.20;;;;;;;;;;4949196;28;20114;-63
2022/11/06 08:15:46;;;;;;;3.67;1.13;;;;;;;;;;4929093;28;20173;-66
2022/11/06 08:18:12;;;;;;;2.25;1.08;;;;;;;;;;4945344;28;20066;-64
2022/11/06 08:20:39;;;;;;;8.05;1.40;;;;;;;;;;4956056;28;20188;-64
2022/11/06 08:23:08;;;;;;;4.20;1.02;;;;;;;;;;4953447;28;20046;-63
2022/11/06 08:25:35;;;;;;;;;;;;;;;;;;4949078;28;20058;-65
2022/11/06 08:28:03;;;;;;;4.93;1.17;;;;;;;;;;4948798;28;19980;-63
2022/11/06 08:30:30;;;;;;;5.05;1.42;;;;;;;;;;4950744;28;20298;-63
2022/11/06 08:33:00;;;;;;;2.03;1.00;;;;;;;;;;4947729;28;20058;-63
2022/11/06 08:35:29;;;;;;;5.75;1.58;;;;;;;;;;4945858;28;20088;-64
2022/11/06 08:37:56;;;;;;;5.80;1.10;;;;;;;;;;4951189;28;20054;-64
2022/11/06 08:40:24;;;;;;;3.10;1.20;;;;;;;;;;4960781;28;20078;-64
2022/11/06 08:42:51;;;;;;;5.90;1.35;;;;;;;;;;4954808;28;20055;-63
2022/11/06 08:45:18;;;;;;;5.65;1.40;;;;;;;;;;4966391;28;20068;-64
2022/11/06 08:47:44;;;;;;;4.25;1.35;;;;;;;;;;4949350;28;20081;-64
2022/11/06 08:50:11;;;;;;;3.22;1.27;;;;;;;;;;4958708;28;20066;-63
2022/11/06 08:52:37;;;;;;;3.72;1.15;;;;;;;;;;4964887;28;20050;-64
2022/11/06 08:55:04;;;;;;;8.07;1.05;;;;;;;;;;4954359;28;20046;-64
2022/11/06 08:57:36;;;;;;;2.38;0.98;;;;;;;;;;4958252;28;20078;-64
2022/11/06 09:00:04;;;;;;;6.45;1.08;;;;;;;;;;4948869;28;20142;-63
2022/11/06 09:02:31;;;;;;;4.47;1.15;;;;;;;;;;4964387;28;20312;-64
2022/11/06 09:04:57;;;;;;;4.28;1.20;;;;;;;;;;4955365;28;20055;-64
2022/11/06 09:07:24;;;;;;;7.53;1.67;;;;;;;;;;4964558;28;20054;-63
2022/11/06 09:09:50;;;;;;;3.97;1.27;;;;;;;;;;4947581;28;20078;-64
2022/11/06 09:12:19;;;;;;;3.90;1.10;;;;;;;;;;4960402;28;20200;-64
2022/11/06 09:14:45;;;;;;;;;;;;;;;;;;4955640;28;20051;-64
2022/11/06 09:17:14;;;;;;;4.38;1.20;;;;;;;;;;4957437;28;19926;-64
2022/11/06 09:19:40;;;;;;;2.17;0.95;;;;;;;;;;4933941;28;20057;-64
2022/11/06 09:22:07;;;;;;;4.03;1.02;;;;;;;;;;4960164;28;20134;-64
2022/11/06 09:24:34;;;;;;;3.75;1.25;;;;;;;;;;4963805;28;20066;-64
2022/11/06 09:27:01;;;;;;;6.63;1.48;;;;;;;;;;4961751;28;20153;-64
2022/11/06 09:29:28;;;;;;;4.13;1.20;;;;;;;;;;4952731;28;20054;-64
2022/11/06 09:31:55;;;;;;;3.47;1.05;;;;;;;;;;4954125;28;20096;-64
2022/11/06 09:34:23;;;;;;;2.00;0.93;;;;;;;;;;4960168;28;20137;-64
2022/11/06 09:36:50;;;;;;;6.38;1.20;;;;;;;;;;4959120;28;20062;-64
2022/11/06 09:39:17;;;;;;;10.68;1.52;;;;;;;;;;4958977;28;20062;-64
2022/11/06 09:41:48;;;;;;;5.07;1.30;;;;;;;;;;4946332;28;20058;-64
2022/11/06 09:44:20;;;;;;;3.88;1.10;;;;;;;;;;4963974;28;20043;-64
2022/11/06 09:46:48;;;;;;;3.50;1.23;;;;;;;;;;4945776;28;20053;-64
2022/11/06 09:49:18;;;;;;;3.35;0.90;;;;;;;;;;4948059;28;20098;-64
2022/11/06 09:51:48;;;;;;;3.65;1.13;;;;;;;;;;4945483;28;20058;-64
2022/11/06 09:54:17;;;;;;;5.72;1.30;;;;;;;;;;4964243;28;20078;-64
2022/11/06 09:56:46;;;;;;;6.07;1.42;;;;;;;;;;4951033;28;20047;-64
2022/11/06 09:59:14;;;;;;;7.82;1.63;;;;;;;;;;4939954;28;20066;-64
2022/11/06 10:01:42;;;;;;;4.47;1.38;;;;;;;;;;4939485;28;20047;-64
2022/11/06 10:04:15;;;;;;;4.88;1.05;;;;;;;;;;4949441;28;20054;-63
2022/11/06 10:06:42;;;;;;;2.53;0.85;;;;;;;;;;4952476;28;20105;-63
2022/11/06 10:09:11;;;;;;;3.05;0.93;;;;;;;;;;4961721;28;20114;-64
2022/11/06 10:11:49;;;;;;;2.92;0.93;;;;;;;;;;4955366;28;20053;-64
2022/11/06 10:14:24;;;;;;;5.05;1.17;;;;;;;;;;4962220;28;20054;-63
2022/11/06 10:16:54;;;;;;;2.40;0.77;;;;;;;;;;4957396;28;20050;-64
2022/11/06 10:19:24;;;;;;;2.50;0.95;;;;;;;;;;4957100;28;20187;-63
2022/11/06 10:21:57;;;;;;;1.83;0.90;;;;;;;;;;4950782;28;20054;-64
2022/11/06 10:24:29;;;;;;;5.38;1.08;;;;;;;;;;4959779;28;20166;-64
2022/11/06 10:26:56;;;;;;;9.68;1.40;;;;;;;;;;4953972;28;20086;-64
2022/11/06 10:29:38;;;;;;;3.03;1.13;;;;;;;;;;4958286;28;20058;-64
2022/11/06 10:32:15;;;;;;;3.90;1.42;;;;;;;;;;4954241;28;20075;-64
2022/11/06 10:34:43;;;;;;;4.80;1.55;;;;;;;;;;4963786;28;20050;-64
2022/11/06 10:37:13;;;;;;;3.30;1.30;;;;;;;;;;4953095;28;20121;-64
2022/11/06 10:39:41;;;;;;;2.75;1.10;;;;;;;;;;4952177;28;20085;-64
2022/11/06 10:42:12;;;;;;;5.80;1.30;;;;;;;;;;4957536;28;20058;-64
2022/11/06 10:44:41;;;;;;;1.63;0.90;;;;;;;;;;4961671;28;20043;-64
2022/11/06 10:47:15;;;;;;;1.13;0.70;;;;;;;;;;4958731;28;20055;-64
2022/11/06 10:49:44;;;;;;;3.85;0.90;;;;;;;;;;4934158;28;20531;-64
2022/11/06 10:52:35;;;;;;;8.10;1.00;;;;;;;;;;4959001;28;20055;-64
2022/11/06 10:55:18;;;;;;;4.55;1.30;;;;;;;;;;4920549;28;20082;-64
2022/11/06 10:57:48;;;;;;;7.82;1.63;;;;;;;;;;4951732;28;20130;-64
2022/11/06 11:00:15;;;;;;;3.85;1.35;;;;;;;;;;4962443;28;20070;-63
2022/11/06 11:02:44;;;;;;;6.97;1.40;;;;;;;;;;4960457;28;20109;-63
2022/11/06 11:05:13;;;;;;;1.58;1.02;;;;;;;;;;4952527;28;20055;-64
2022/11/06 11:07:39;;;;;;;3.47;1.20;;;;;;;;;;4957369;28;21089;-65
2022/11/06 11:10:21;;;;;;;3.03;1.08;;;;;;;;;;4952809;28;20145;-64
2022/11/06 11:12:49;;;;;;;4.65;1.00;;;;;;;;;;4954781;28;20158;-64
2022/11/06 11:15:17;;;;;;;6.03;1.08;;;;;;;;;;4957435;28;20074;-64
2022/11/06 11:18:04;;;;;;;4.68;1.27;;;;;;;;;;4948625;28;20051;-63
2022/11/06 11:20:33;;;;;;;3.80;1.10;;;;;;;;;;4959790;28;20137;-64
2022/11/06 11:23:07;;;;;;;4.75;1.27;;;;;;;;;;4959238;28;20050;-64
2022/11/06 11:25:34;;;;;;;3.30;1.17;;;;;;;;;;4955300;28;20106;-65
2022/11/06 11:28:01;;;;;;;2.72;1.25;;;;;;;;;;4962126;28;20105;-64
2022/11/06 11:30:28;;;;;;;3.55;1.00;;;;;;;;;;4956335;28;20142;-64
2022/11/06 11:32:56;;;;;;;5.03;1.25;;;;;;;;;;4961199;28;20046;-64
2022/11/06 11:35:26;;;;;;;6.57;1.30;;;;;;;;;;4956216;28;20059;-63
2022/11/06 11:38:04;;;;;;;6.95;1.10;;;;;;;;;;4954243;28;20248;-64
2022/11/06 11:40:34;;;;;;;6.57;1.33;;;;;;;;;;4955636;28;20061;-64
2022/11/06 11:43:15;;;;;;;3.53;1.10;;;;;;;;;;4957772;28;20063;-63
2022/11/06 11:45:41;;;;;;;6.15;1.25;;;;;;;;;;4939584;28;20055;-63
2022/11/06 11:48:12;;;;;;;2.08;1.02;;;;;;;;;;4946320;28;20056;-64
2022/11/06 11:50:38;;;;;;;2.67;0.98;;;;;;;;;;4968692;28;20063;-63
2022/11/06 11:53:11;;;;;;;3.92;1.05;;;;;;;;;;4961941;28;20053;-64
2022/11/06 11:55:39;;;;;;;7.18;1.50;;;;;;;;;;4953877;28;20057;-66
2022/11/06 11:58:15;;;;;;;3.97;0.95;;;;;;;;;;4961608;28;20062;-64
2022/11/06 12:00:49;;;;;;;6.30;1.00;;;;;;;;;;4960287;28;20051;-64
2022/11/06 12:03:15;;;;;;;5.25;1.27;;;;;;;;;;4961900;28;20065;-63
2022/11/06 12:05:42;;;;;;;3.42;0.93;;;;;;;;;;4949840;28;20133;-64
2022/11/06 12:08:14;;;;;;;4.68;1.10;;;;;;;;;;4961245;28;20062;-63
2022/11/06 12:10:43;;;;;;;5.82;1.08;;;;;;;;;;4956119;28;20066;-64
2022/11/06 12:13:15;;;;;;;4.43;1.13;;;;;;;;;;4966520;28;20086;-63
2022/11/06 12:15:45;;;;;;;4.95;1.10;;;;;;;;;;4956755;28;20124;-63
2022/11/06 12:18:13;;;;;;;4.30;1.08;;;;;;;;;;4955781;28;20050;-64
2022/11/06 12:20:43;;;;;;;5.88;0.98;;;;;;;;;;4962017;28;20176;-64
2022/11/06 12:23:16;;;;;;;2.58;0.80;;;;;;;;;;4953008;28;20057;-63
2022/11/06 12:25:57;;;;;;;6.05;1.23;;;;;;;;;;4959906;28;20047;-63
2022/11/06 12:28:25;;;;;;;3.33;1.05;;;;;;;;;;4958336;28;20050;-64
2022/11/06 12:31:00;;;;;;;4.63;1.08;;;;;;;;;;4954637;28;20062;-64
2022/11/06 12:33:32;;;;;;;9.65;1.55;;;;;;;;;;4959876;28;20109;-63
2022/11/06 12:36:01;;;;;;;2.75;0.98;;;;;;;;;;4940289;28;20069;-64
2022/11/06 12:38:42;;;;;;;4.18;1.00;;;;;;;;;;4970877;28;20061;-64
2022/11/06 12:41:13;;;;;;;3.88;0.90;;;;;;;;;;4950815;28;20142;-63
2022/11/06 12:43:44;;;;;;;1.92;0.77;;;;;;;;;;4948840;28;20149;-64
2022/11/06 12:46:55;;;;;;;3.15;1.33;;;;;;;;;;4948126;28;20083;-63
2022/11/06 12:49:45;;;;;;;4.07;0.98;;;;;;;;;;4960555;28;20059;-64
2022/11/06 12:52:32;;;;;;;3.83;0.95;;;;;;;;;;4947221;28;20059;-64
2022/11/06 12:55:15;;;;;;;5.88;1.00;;;;;;;;;;4946140;28;20054;-63
2022/11/06 12:57:47;;;;;;;4.05;0.98;;;;;;;;;;4945150;28;20050;-64
2022/11/06 13:00:20;;;;;;;4.80;0.88;;;;;;;;;;4959153;28;20057;-64
2022/11/06 13:02:57;;;;;;;2.60;0.80;;;;;;;;;;4957701;28;20093;-64
2022/11/06 13:05:36;;;;;;;4.57;1.02;;;;;;;;;;4982773;28;20054;-64
2022/11/06 13:08:15;;;;;;;4.15;0.90;;;;;;;;;;4959805;28;20050;-64
2022/11/06 13:13:46;;;;;;;3.47;0.98;;;;;;;;;;4932997;28;20077;-65
2022/11/06 13:16:20;;;;;;;4.55;1.48;;;;;;;;;;4956134;28;20051;-64
2022/11/06 13:18:50;;;;;;;2.58;0.90;;;;;;;;;;4967028;28;20058;-63
2022/11/06 13:21:25;;;;;;;3.88;1.00;;;;;;;;;;4958519;28;20054;-64
2022/11/06 13:23:56;;;;;;;6.60;1.13;;;;;;;;;;4953212;28;20050;-64
2022/11/06 13:26:29;;;;;;;5.82;1.00;;;;;;;;;;4944926;28;20070;-63
2022/11/06 13:29:03;;;;;;;4.43;0.80;;;;;;;;;;4964448;28;20055;-63
2022/11/06 13:31:36;;;;;;;4.47;1.10;;;;;;;;;;4952247;28;20047;-64
2022/11/06 13:34:06;;;;;;;1.02;0.73;;;;;;;;;;4982145;28;20050;-64
2022/11/06 13:36:40;;;;;;;3.65;0.82;;;;;;;;;;4956380;28;20055;-65
2022/11/06 13:39:14;;;;;;;2.00;0.80;;;;;;;;;;4946589;28;20058;-64
2022/11/06 13:41:47;;;;;;;4.50;0.95;;;;;;;;;;4955157;28;20059;-64
2022/11/06 13:44:17;;;;;;;3.25;0.88;;;;;;;;;;4961277;28;20073;-64
2022/11/06 13:47:00;;;;;;;4.32;0.82;;;;;;;;;;4949108;28;20042;-64
2022/11/06 13:49:41;;;;;;;6.60;1.08;;;;;;;;;;4936327;28;20123;-64
2022/11/06 13:52:18;;;;;;;9.15;0.98;;;;;;;;;;4954677;28;20051;-63
2022/11/06 13:54:56;;;;;;;4.43;0.90;;;;;;;;;;4955919;28;20058;-64
2022/11/06 13:57:50;;;;;;;3.47;1.00;;;;;;;;;;4963961;28;20130;-64
2022/11/06 14:00:34;;;;;;;3.85;0.80;;;;;;;;;;4945033;28;20058;-64
2022/11/06 14:03:33;;;;;;;5.25;0.93;;;;;;;;;;4963446;28;20057;-64
2022/11/06 14:06:06;;;;;;;4.22;1.00;;;;;;;;;;4935068;28;20055;-64
2022/11/06 14:08:46;;;;;;;4.45;1.33;;;;;;;;;;4962645;28;20055;-64
2022/11/06 14:11:27;;;;;;;6.55;1.05;;;;;;;;;;4922975;28;20051;-64
2022/11/06 14:14:08;;;;;;;4.88;0.98;;;;;;;;;;4943277;28;20126;-64
2022/11/06 14:16:38;;;;;;;2.33;0.80;;;;;;;;;;4939133;28;20138;-64
2022/11/06 14:19:10;;;;;;;4.68;1.10;;;;;;;;;;4955809;28;20076;-65
2022/11/06 14:21:48;;;;;;;9.95;1.77;;;;;;;;;;4945846;28;20142;-63
2022/11/06 14:24:17;;;;;;;2.13;0.73;;;;;;;;;;4960907;28;20145;-64
2022/11/06 14:26:48;;;;;;;2.45;1.10;;;;;;;;;;4946910;28;20098;-63
2022/11/06 14:29:54;;;;;;;7.72;1.05;;;;;;;;;;4961282;28;20059;-64
2022/11/06 14:32:56;;;;;;;3.15;0.73;;;;;;;;;;4957826;28;20066;-64
2022/11/06 14:35:53;;;;;;;6.55;1.30;;;;;;;;;;4958980;28;20054;-63
2022/11/06 14:38:41;;;;;;;3.63;0.93;;;;;;;;;;4956732;28;20057;-65
2022/11/06 14:41:41;;;;;;;4.70;1.40;;;;;;;;;;4959671;28;20309;-64
2022/11/06 14:44:26;;;;;;;6.53;1.10;;;;;;;;;;4941988;28;20066;-65
2022/11/06 14:47:29;;;;;;;2.65;1.10;;;;;;;;;;4958122;28;20051;-66
2022/11/06 14:50:05;;;;;;;7.60;1.00;;;;;;;;;;4960432;28;20051;-66
2022/11/06 14:52:48;;;;;;;2.80;0.82;;;;;;;;;;4960978;28;20059;-64
2022/11/06 14:55:17;;;;;;;;;;;;;;;;;;4946436;28;20125;-66
2022/11/06 14:57:49;;;;;;;1.90;0.75;;;;;;;;;;4951496;28;19933;-66
2022/11/06 15:00:35;;;;;;;2.22;0.80;;;;;;;;;;4967970;28;20058;-66
2022/11/06 15:03:04;;;;;;;2.15;0.70;;;;;;;;;;4958055;28;20051;-65
2022/11/06 15:05:36;;;;;;;1.55;0.65;;;;;;;;;;4943901;28;20055;-65
2022/11/06 15:08:04;;;;;;;2.15;0.70;;;;;;;;;;4956645;28;20055;-65
2022/11/06 15:11:02;;;;;;;5.88;0.98;;;;;;;;;;4962836;28;20075;-67
2022/11/06 15:13:35;;;;;;;2.08;0.85;;;;;;;;;;4960203;28;20074;-65
2022/11/06 15:16:09;;;;;;;3.92;0.90;;;;;;;;;;4944230;28;20130;-65
2022/11/06 15:18:37;;;;;;;2.28;0.70;;;;;;;;;;4962474;28;20113;-65
2022/11/06 15:21:08;;;;;;;3.03;0.90;;;;;;;;;;4962827;28;20066;-65
2022/11/06 15:24:03;;;;;;;3.30;0.90;;;;;;;;;;4962407;28;20070;-64